Time;durP1;ratioP1;P1;durP2;ratioP2;P2;SDS_P1;SDS_P2;PMS_P1;PMS_P2;Temp;Humidity;BMP_temperature;BMP_pressure;BME280_temperature;BME280_humidity;BME280_pressure;Samples;Min_cycle;Max_cycle;Signal;HPM_P1;HPM_P2
2023/02/10 00:00:04;;;;;;;45.25;23.70;;;;;;;-3.44;100.00;103931.34;2072234;28;20182;-62
2023/02/10 00:01:07;;;;;;;40.70;25.45;;;;;;;-3.52;100.00;103915.56;2071668;28;20197;-62
2023/02/10 00:02:08;;;;;;;38.08;24.08;;;;;;;-3.45;100.00;103920.78;2071771;28;20177;-62
2023/02/10 00:03:08;;;;;;;37.27;24.53;;;;;;;-5.74;100.00;103541.25;2072069;28;20302;-62
2023/02/10 00:04:11;;;;;;;37.20;24.17;;;;;;;-3.47;100.00;103921.03;2071889;28;20178;-62
2023/02/10 00:05:12;;;;;;;42.50;25.23;;;;;;;-3.52;100.00;103917.47;2072415;28;20178;-62
2023/02/10 00:06:14;;;;;;;37.17;23.87;;;;;;;-3.51;100.00;103914.50;2072077;28;20209;-62
2023/02/10 00:07:14;;;;;;;46.13;25.98;;;;;;;-3.78;100.00;103878.50;2071801;28;20188;-62
2023/02/10 00:08:14;;;;;;;51.10;26.43;;;;;;;-3.52;100.00;103910.16;2066828;28;20198;-62
2023/02/10 00:09:15;;;;;;;45.43;24.20;;;;;;;-3.85;100.00;103852.69;2063954;28;20660;-62
2023/02/10 00:10:15;;;;;;;45.63;24.53;;;;;;;-3.73;100.00;103866.88;2063920;28;20359;-62
2023/02/10 00:11:16;;;;;;;39.57;23.50;;;;;;;-3.45;100.00;103908.03;2065291;28;20191;-62
2023/02/10 00:12:16;;;;;;;41.00;23.77;;;;;;;-3.54;100.00;103896.03;2072270;28;20178;-62
2023/02/10 00:13:17;;;;;;;40.50;24.83;;;;;;;-3.56;100.00;103919.03;2072322;28;20240;-62
2023/02/10 00:14:18;;;;;;;39.90;24.37;;;;;;;-3.49;100.00;103909.63;2070616;28;20233;-62
2023/02/10 00:15:19;;;;;;;39.08;24.15;;;;;;;-3.49;100.00;103908.81;2071188;28;20224;-62
2023/02/10 00:16:19;;;;;;;38.53;23.10;;;;;;;-3.46;100.00;103900.97;2072159;28;20228;-62
2023/02/10 00:17:20;;;;;;;36.30;23.00;;;;;;;-3.44;100.00;103898.03;2067798;28;20281;-62
2023/02/10 00:18:20;;;;;;;40.60;24.70;;;;;;;-3.84;100.00;103862.44;2066916;28;20540;-62
2023/02/10 00:19:22;;;;;;;40.07;24.87;;;;;;;-3.51;100.00;103902.81;2071696;28;20264;-62
2023/02/10 00:20:23;;;;;;;43.38;24.48;;;;;;;-4.55;100.00;103739.09;2071824;28;20205;-62
2023/02/10 00:21:23;;;;;;;38.17;24.57;;;;;;;-3.61;100.00;103898.16;2071775;28;20185;-62
2023/02/10 00:22:23;;;;;;;38.27;23.90;;;;;;;-3.66;100.00;103895.38;2072453;28;20582;-62
2023/02/10 00:23:24;;;;;;;39.20;24.57;;;;;;;-3.67;100.00;103901.06;2071807;28;20197;-62
2023/02/10 00:24:25;;;;;;;39.43;24.47;;;;;;;-3.65;100.00;103888.88;2071435;28;20192;-62
2023/02/10 00:25:25;;;;;;;39.57;24.57;;;;;;;-3.62;100.00;103891.09;2071952;28;20280;-62
2023/02/10 00:26:26;;;;;;;37.37;24.13;;;;;;;-3.61;100.00;103892.72;2068465;28;20205;-62
2023/02/10 00:27:26;;;;;;;37.23;24.07;;;;;;;-3.63;100.00;103897.59;2064949;28;20628;-62
2023/02/10 00:28:26;;;;;;;39.33;23.53;;;;;;;-4.28;100.00;103785.09;2070421;28;20682;-62
2023/02/10 00:29:27;;;;;;;38.37;24.37;;;;;;;-3.56;100.00;103884.63;2064112;28;20186;-62
2023/02/10 00:30:28;;;;;;;43.20;25.30;;;;;;;-4.23;100.00;103785.97;2072597;28;20309;-62
2023/02/10 00:31:29;;;;;;;40.65;24.75;;;;;;;-3.47;100.00;103893.09;2071670;28;20245;-62
2023/02/10 00:32:29;;;;;;;45.67;25.00;;;;;;;-3.98;100.00;103801.63;2071898;28;20200;-62
2023/02/10 00:33:30;;;;;;;44.53;25.17;;;;;;;-3.45;100.00;103885.53;2071693;28;20231;-62
2023/02/10 00:34:30;;;;;;;46.10;24.60;;;;;;;-3.92;100.00;103811.41;2071697;28;20197;-62
2023/02/10 00:35:31;;;;;;;43.07;24.43;;;;;;;-4.62;100.00;103697.88;2071228;28;20209;-62
2023/02/10 00:36:32;;;;;;;40.20;23.73;;;;;;;-3.48;100.00;103878.75;2072261;28;20210;-62
2023/02/10 00:37:32;;;;;;;39.80;24.00;;;;;;;-3.49;100.00;103885.22;2071432;28;20201;-62
2023/02/10 00:38:35;;;;;;;39.47;24.17;;;;;;;-4.23;100.00;103760.75;2072420;28;20205;-62
2023/02/10 00:39:35;;;;;;;38.33;24.17;;;;;;;-3.54;100.00;103882.47;2072004;28;20200;-62
2023/02/10 00:40:35;;;;;;;39.93;24.40;;;;;;;-3.55;100.00;103877.34;2071602;28;20208;-62
2023/02/10 00:41:37;;;;;;;40.33;24.60;;;;;;;-3.66;100.00;103856.63;2072017;28;20205;-62
2023/02/10 00:42:37;;;;;;;36.50;23.63;;;;;;;-3.53;100.00;103872.44;2072710;28;20202;-62
2023/02/10 00:43:42;;;;;;;42.10;25.23;;;;;;;-3.50;100.00;103882.78;2070018;28;20224;-62
2023/02/10 00:44:42;;;;;;;43.83;25.15;;;;;;;-3.55;100.00;103870.00;2067859;28;20670;-62
2023/02/10 00:45:43;;;;;;;47.80;29.90;;;;;;;-4.83;100.00;103673.63;2073045;28;20272;-62
2023/02/10 00:46:43;;;;;;;38.73;24.83;;;;;;;-3.61;100.00;103883.75;2072672;28;20174;-62
2023/02/10 00:47:43;;;;;;;45.03;29.67;;;;;;;-3.62;100.00;103874.00;2072803;28;20189;-62
2023/02/10 00:48:44;;;;;;;42.77;26.57;;;;;;;-3.67;100.00;103871.25;2065918;28;20193;-61
2023/02/10 00:49:45;;;;;;;40.87;26.50;;;;;;;-3.67;100.00;103869.38;2071866;28;20189;-62
2023/02/10 00:50:45;;;;;;;40.17;25.20;;;;;;;-3.68;100.00;103870.44;2073125;28;20221;-62
2023/02/10 00:51:45;;;;;;;42.30;25.17;;;;;;;-3.73;100.00;103867.69;2068843;28;20213;-62
2023/02/10 00:52:46;;;;;;;41.47;25.17;;;;;;;-3.92;100.00;103838.50;2068470;28;20225;-62
2023/02/10 00:53:49;;;;;;;43.30;24.40;;;;;;;-3.75;100.00;103864.41;2071644;28;20178;-62
2023/02/10 00:54:50;;;;;;;39.42;25.52;;;;;;;-3.80;100.00;103868.97;2066160;28;20209;-62
2023/02/10 00:55:50;;;;;;;43.20;26.23;;;;;;;-3.84;100.00;103862.44;2073017;28;20699;-62
2023/02/10 00:56:51;;;;;;;40.13;25.40;;;;;;;-3.85;100.00;103861.59;2065513;28;20305;-62
2023/02/10 00:57:51;;;;;;;42.73;26.23;;;;;;;-3.84;100.00;103873.28;2071632;28;20201;-62
2023/02/10 00:58:51;;;;;;;44.87;25.13;;;;;;;-3.87;100.00;103871.06;2073278;28;20189;-62
2023/02/10 00:59:52;;;;;;;41.80;26.23;;;;;;;-3.88;100.00;103866.72;2073561;28;20229;-62
2023/02/10 01:00:54;;;;;;;45.83;26.67;;;;;;;-3.88;100.00;103861.31;2073068;28;20268;-62
2023/02/10 01:01:54;;;;;;;46.38;26.80;;;;;;;-3.90;100.00;103858.84;2070474;28;20323;-62
2023/02/10 01:02:55;;;;;;;38.47;24.33;;;;;;;-3.91;100.00;103857.22;2066739;28;20174;-62
2023/02/10 01:03:55;;;;;;;42.47;24.77;;;;;;;-4.76;100.00;103712.91;2072661;28;20174;-62
2023/02/10 01:04:56;;;;;;;36.87;23.50;;;;;;;-3.84;100.00;103859.72;2073763;28;20174;-62
2023/02/10 01:05:56;;;;;;;35.17;23.10;;;;;;;-3.90;100.00;103858.06;2073020;28;20665;-62
2023/02/10 01:06:57;;;;;;;39.03;22.93;;;;;;;-3.93;100.00;103847.72;2073171;28;20189;-62
2023/02/10 01:07:57;;;;;;;35.87;22.83;;;;;;;-3.97;100.00;103860.97;2073147;28;20193;-62
2023/02/10 01:08:58;;;;;;;38.33;23.73;;;;;;;-4.02;100.00;103860.09;2073206;28;20220;-62
2023/02/10 01:09:58;;;;;;;35.57;22.90;;;;;;;-4.06;100.00;103856.28;2073327;28;20186;-62
2023/02/10 01:11:07;;;;;;;33.90;22.73;;;;;;;-4.09;100.00;103849.50;2073147;28;20225;-62
2023/02/10 01:12:07;;;;;;;39.83;24.00;;;;;;;-4.12;100.00;103852.69;2073245;28;20173;-62
2023/02/10 01:13:09;;;;;;;46.60;24.37;;;;;;;-4.17;100.00;103852.66;2072924;28;20185;-62
2023/02/10 01:14:10;;;;;;;35.90;23.20;;;;;;;-4.18;100.00;103853.72;2073235;28;20475;-62
2023/02/10 01:15:11;;;;;;;34.30;23.17;;;;;;;-4.16;100.00;103861.59;2072872;28;20204;-62
2023/02/10 01:16:14;;;;;;;42.23;25.33;;;;;;;-4.20;100.00;103858.56;2072722;28;20197;-62
2023/02/10 01:17:14;;;;;;;42.38;24.60;;;;;;;-4.23;100.00;103856.38;2073041;28;20701;-62
2023/02/10 01:18:14;;;;;;;36.83;22.47;;;;;;;-4.86;100.00;103755.25;2067676;28;20563;-62
2023/02/10 01:19:15;;;;;;;37.00;24.53;;;;;;;-4.30;100.00;103857.66;2068546;28;20217;-62
2023/02/10 01:20:16;;;;;;;44.47;24.27;;;;;;;-4.32;100.00;103852.47;2073585;28;20196;-62
2023/02/10 01:21:18;;;;;;;38.83;24.33;;;;;;;-4.93;100.00;103750.03;2072890;28;20231;-62
2023/02/10 01:22:19;;;;;;;40.92;25.15;;;;;;;-4.38;100.00;103850.81;2073119;28;20257;-62
2023/02/10 01:23:19;;;;;;;43.60;25.60;;;;;;;-4.42;100.00;103843.44;2073580;28;20182;-62
2023/02/10 01:24:20;;;;;;;39.70;24.97;;;;;;;-4.44;100.00;103845.56;2072716;28;20199;-62
2023/02/10 01:25:20;;;;;;;39.87;24.70;;;;;;;-4.49;100.00;103850.94;2066620;28;20651;-62
2023/02/10 01:26:21;;;;;;;38.70;25.43;;;;;;;-4.53;100.00;103850.63;2065180;28;20282;-62
2023/02/10 01:27:21;;;;;;;41.70;25.67;;;;;;;-4.54;100.00;103851.72;2069261;28;20202;-62
2023/02/10 01:28:22;;;;;;;42.97;26.40;;;;;;;-5.03;100.00;103774.25;2069652;28;20198;-62
2023/02/10 01:29:22;;;;;;;43.87;25.77;;;;;;;-5.28;100.00;103752.31;2067019;28;20174;-62
2023/02/10 01:30:22;;;;;;;42.40;26.93;;;;;;;-4.59;100.00;103846.22;2072142;28;20175;-62
2023/02/10 01:31:23;;;;;;;45.97;26.57;;;;;;;-5.42;100.00;103707.81;2065123;28;20627;-62
2023/02/10 01:32:23;;;;;;;44.53;27.87;;;;;;;-4.75;100.00;103814.66;2073215;28;20197;-62
2023/02/10 01:33:24;;;;;;;41.77;26.80;;;;;;;-4.67;100.00;103821.50;2069014;28;20190;-62
2023/02/10 01:34:26;;;;;;;45.63;28.20;;;;;;;-4.54;100.00;103845.47;2072172;28;20269;-62
2023/02/10 01:35:27;;;;;;;42.40;26.65;;;;;;;-5.39;100.00;103703.81;2073104;28;20186;-62
2023/02/10 01:36:27;;;;;;;38.23;25.50;;;;;;;-4.52;100.00;103844.13;2072888;28;20198;-62
2023/02/10 01:37:28;;;;;;;42.40;27.13;;;;;;;-4.52;100.00;103837.94;2072921;28;20449;-62
2023/02/10 01:38:28;;;;;;;40.60;26.20;;;;;;;-4.66;100.00;103818.53;2072714;28;20180;-62
2023/02/10 01:39:28;;;;;;;42.13;26.13;;;;;;;-4.49;100.00;103842.81;2072601;28;20174;-62
2023/02/10 01:40:29;;;;;;;41.27;27.07;;;;;;;-4.52;100.00;103838.72;2073561;28;20686;-62
2023/02/10 01:41:29;;;;;;;44.27;27.87;;;;;;;-4.63;100.00;103822.63;2073114;28;20193;-62
2023/02/10 01:42:31;;;;;;;44.63;27.70;;;;;;;-4.58;100.00;103836.22;2073139;28;20224;-62
2023/02/10 01:43:32;;;;;;;47.10;27.33;;;;;;;-4.63;100.00;103841.56;2072705;28;20190;-62
2023/02/10 01:44:32;;;;;;;44.58;27.48;;;;;;;-4.64;100.00;103834.53;2072662;28;20232;-62
2023/02/10 01:45:34;;;;;;;43.77;26.53;;;;;;;-4.85;100.00;103829.94;2072672;28;20197;-62
2023/02/10 01:46:35;;;;;;;43.38;28.45;;;;;;;-4.63;100.00;103836.16;2072925;28;20252;-62
2023/02/10 01:47:35;;;;;;;43.57;26.27;;;;;;;-4.64;100.00;103840.75;2072562;28;20185;-62
2023/02/10 01:48:36;;;;;;;42.43;25.60;;;;;;;-4.81;100.00;103818.38;2073401;28;20181;-62
2023/02/10 01:49:41;;;;;;;38.97;25.23;;;;;;;-4.79;100.00;103835.16;2073367;28;20189;-62
2023/02/10 01:50:53;;;;;;;39.60;23.85;;;;;;;-5.44;100.00;103746.97;2073272;28;20264;-62
2023/02/10 01:52:01;;;;;;;43.10;25.10;;;;;;;-4.95;100.00;103827.94;2072244;28;20729;-62
2023/02/10 01:53:03;;;;;;;41.00;24.40;;;;;;;-5.47;100.00;103767.22;2072881;28;20255;-62
2023/02/10 01:54:05;;;;;;;39.13;23.60;;;;;;;-6.15;100.00;103644.44;2071706;28;20677;-62
2023/02/10 01:55:10;;;;;;;38.58;24.88;;;;;;;-5.06;100.00;103828.88;2072143;28;20686;-62
2023/02/10 01:56:13;;;;;;;40.00;24.90;;;;;;;-5.05;100.00;103829.69;2072188;28;20259;-62
2023/02/10 01:57:14;;;;;;;39.08;25.38;;;;;;;-5.05;100.00;103829.69;2072387;28;20233;-62
2023/02/10 01:58:17;;;;;;;45.47;25.97;;;;;;;-4.95;100.00;103830.63;2068131;28;20198;-62
2023/02/10 01:59:19;;;;;;;37.92;24.48;;;;;;;-4.91;100.00;103831.78;2066487;28;20663;-62
2023/02/10 02:00:21;;;;;;;37.80;23.83;;;;;;;-4.83;100.00;103830.53;2073909;28;20754;-62
2023/02/10 02:01:22;;;;;;;40.53;24.60;;;;;;;-4.76;100.00;103834.69;2080205;28;20189;-62
2023/02/10 02:02:22;;;;;;;37.80;24.17;;;;;;;-4.71;100.00;103823.91;2065352;28;20183;-62
2023/02/10 02:03:23;;;;;;;37.93;24.40;;;;;;;-4.66;100.00;103837.47;2072293;28;20260;-62
2023/02/10 02:04:23;;;;;;;39.23;25.70;;;;;;;-5.16;100.00;103796.28;2072618;28;20680;-62
2023/02/10 02:05:33;;;;;;;41.23;26.10;;;;;;;-4.62;100.00;103835.91;2067124;28;20198;-62
2023/02/10 02:06:35;;;;;;;39.80;25.35;;;;;;;-4.59;100.00;103837.28;2070692;28;20224;-62
2023/02/10 02:07:37;;;;;;;41.53;25.60;;;;;;;-4.93;100.00;103792.53;2072373;28;20665;-62
2023/02/10 02:08:38;;;;;;;40.08;25.17;;;;;;;-4.62;100.00;103837.81;2069115;28;20791;-62
2023/02/10 02:09:40;;;;;;;40.55;25.23;;;;;;;-4.60;100.00;103835.66;2067815;28;20283;-62
2023/02/10 02:11:12;;;;;;;43.70;26.40;;;;;;;-4.55;100.00;103836.53;2070658;28;20177;-61
2023/02/10 02:12:39;;;;;;;38.00;23.33;;;;;;;-4.53;100.00;103836.25;2069841;28;21117;-62
2023/02/10 02:13:50;;;;;;;36.75;23.27;;;;;;;-4.56;100.00;103828.66;2072008;28;20785;-62
2023/02/10 02:15:17;;;;;;;38.17;23.80;;;;;;;-4.60;100.00;103827.53;2071486;28;20682;-62
2023/02/10 02:16:35;;;;;;;37.45;23.83;;;;;;;-4.60;100.00;103822.94;2067419;28;20276;-62
2023/02/10 02:17:38;;;;;;;42.03;24.33;;;;;;;-4.61;100.00;103829.41;2072555;28;20604;-62
2023/02/10 02:18:39;;;;;;;39.13;24.25;;;;;;;-4.65;100.00;103822.91;2072671;28;20181;-62
2023/02/10 02:21:35;;;;;;;39.63;22.77;;;;;;;-4.66;100.00;103820.44;2072451;28;20210;-62
2023/02/10 02:23:04;;;;;;;35.97;22.98;;;;;;;-4.69;100.00;103829.03;2070353;28;20201;-62
2023/02/10 02:24:19;;;;;;;36.05;21.63;;;;;;;-4.70;100.00;103822.84;2072709;28;20170;-62
2023/02/10 02:25:30;;;;;;;34.30;21.55;;;;;;;-4.68;100.00;103819.84;2064143;28;20640;-62
2023/02/10 02:26:49;;;;;;;38.33;22.25;;;;;;;-4.67;100.00;103814.19;2064230;28;20179;-62
2023/02/10 02:28:15;;;;;;;40.85;23.40;;;;;;;-4.66;100.00;103820.44;2072032;28;20530;-62
2023/02/10 02:30:09;;;;;;;37.55;21.75;;;;;;;-4.66;100.00;103809.59;2072614;28;20208;-62
2023/02/10 02:31:28;;;;;;;33.30;20.48;;;;;;;-4.65;100.00;103813.94;2071438;28;20170;-61
2023/02/10 02:32:37;;;;;;;34.38;21.25;;;;;;;-4.68;100.00;103817.97;2071485;28;20178;-62
2023/02/10 02:33:51;;;;;;;34.90;21.48;;;;;;;-4.69;100.00;103812.81;2070254;28;20276;-62
2023/02/10 02:34:59;;;;;;;38.40;21.85;;;;;;;-5.69;100.00;103652.88;2067100;28;20203;-62
2023/02/10 02:36:18;;;;;;;37.92;22.80;;;;;;;-5.15;100.00;103735.72;2070031;28;20849;-61
2023/02/10 02:37:32;;;;;;;41.55;22.50;;;;;;;-4.67;100.00;103805.28;2068391;28;20277;-62
2023/02/10 02:38:40;;;;;;;37.47;20.73;;;;;;;-4.66;100.00;103806.91;2068038;28;20263;-62
2023/02/10 02:39:42;;;;;;;34.58;20.42;;;;;;;-4.68;100.00;103803.63;2068959;28;20198;-62
2023/02/10 02:40:42;;;;;;;36.17;21.60;;;;;;;-4.65;100.00;103803.13;2068758;28;20202;-62
2023/02/10 02:41:43;;;;;;;38.93;22.17;;;;;;;-4.62;100.00;103798.00;2066986;28;20182;-62
2023/02/10 02:42:43;;;;;;;37.27;22.73;;;;;;;-4.61;100.00;103796.13;2070808;28;20262;-61
2023/02/10 02:43:43;;;;;;;37.87;22.77;;;;;;;-4.64;100.00;103791.22;2072017;28;20197;-62
2023/02/10 02:44:47;;;;;;;42.47;22.67;;;;;;;-4.62;100.00;103799.91;2072672;28;20612;-62
2023/02/10 02:45:58;;;;;;;48.05;22.17;;;;;;;-4.63;100.00;103804.50;2072445;28;20193;-62
2023/02/10 02:47:11;;;;;;;42.22;22.10;;;;;;;-4.88;100.00;103757.41;2072779;28;20555;-62
2023/02/10 02:48:56;;;;;;;40.55;21.42;;;;;;;-4.60;100.00;103797.75;2068042;28;20184;-62
2023/02/10 02:50:18;;;;;;;36.58;20.85;;;;;;;-4.66;100.00;103796.88;2067957;28;20691;-62
2023/02/10 02:51:41;;;;;;;33.53;20.73;;;;;;;-4.73;100.00;103798.19;2071928;28;20201;-62
2023/02/10 02:53:08;;;;;;;33.60;21.08;;;;;;;-4.74;100.00;103794.63;2072384;28;20650;-61
2023/02/10 02:54:38;;;;;;;35.08;20.38;;;;;;;-4.73;100.00;103814.41;2066551;28;20225;-62
2023/02/10 02:56:00;;;;;;;39.25;21.52;;;;;;;-4.75;100.00;103800.31;2071271;28;20212;-62
2023/02/10 02:57:40;;;;;;;37.00;21.50;;;;;;;-4.78;100.00;103798.13;2068953;28;20234;-62
2023/02/10 02:59:13;;;;;;;36.08;20.90;;;;;;;-4.84;100.00;103805.34;2064806;28;20268;-62
2023/02/10 03:00:22;;;;;;;38.70;21.63;;;;;;;-4.85;100.00;103803.72;2072154;28;20213;-62
2023/02/10 03:01:34;;;;;;;35.35;20.40;;;;;;;-4.84;100.00;103794.53;2068667;28;20579;-62
2023/02/10 03:02:37;;;;;;;37.83;21.48;;;;;;;-4.87;100.00;103789.59;2064300;28;20202;-62
2023/02/10 03:03:37;;;;;;;43.58;22.70;;;;;;;-4.82;100.00;103797.78;2067405;28;20186;-62
2023/02/10 03:04:38;;;;;;;37.57;21.93;;;;;;;-5.44;100.00;103698.34;2069727;28;20206;-62
2023/02/10 03:05:39;;;;;;;42.88;22.98;;;;;;;-4.81;100.00;103801.31;2072441;28;20185;-62
2023/02/10 03:06:39;;;;;;;42.67;22.73;;;;;;;-5.65;100.00;103666.72;2080549;28;20187;-61
2023/02/10 03:07:40;;;;;;;37.13;22.57;;;;;;;-4.80;100.00;103801.06;2064249;28;20182;-62
2023/02/10 03:08:41;;;;;;;35.63;21.93;;;;;;;-4.78;100.00;103803.53;2071558;28;20686;-62
2023/02/10 03:09:42;;;;;;;34.75;21.85;;;;;;;-4.79;100.00;103801.88;2066451;28;20229;-62
2023/02/10 03:10:43;;;;;;;39.35;23.25;;;;;;;-4.78;100.00;103796.22;2068896;28;20211;-62
2023/02/10 03:11:43;;;;;;;38.40;23.07;;;;;;;-4.95;100.00;103775.72;2068049;28;20221;-62
2023/02/10 03:12:44;;;;;;;37.10;22.07;;;;;;;-4.78;100.00;103798.91;2066774;28;20205;-62
2023/02/10 03:13:44;;;;;;;37.07;22.30;;;;;;;-4.93;100.00;103776.28;2072110;28;20674;-62
2023/02/10 03:14:44;;;;;;;38.50;22.87;;;;;;;-4.80;100.00;103805.66;2071714;28;20204;-62
2023/02/10 03:15:45;;;;;;;38.83;23.13;;;;;;;-4.81;100.00;103802.16;2072292;28;20174;-62
2023/02/10 03:16:46;;;;;;;43.23;24.07;;;;;;;-4.82;100.00;103799.69;2064880;28;20258;-62
2023/02/10 03:17:46;;;;;;;39.90;22.33;;;;;;;-6.20;100.00;103582.28;2070094;28;20222;-61
2023/02/10 03:18:47;;;;;;;48.83;24.20;;;;;;;-4.85;100.00;103798.31;2072376;28;20675;-62
2023/02/10 03:19:47;;;;;;;48.80;23.77;;;;;;;-4.82;100.00;103802.41;2068096;28;20653;-62
2023/02/10 03:20:47;;;;;;;49.73;23.30;;;;;;;-4.83;100.00;103806.97;2067020;28;20280;-61
2023/02/10 03:21:48;;;;;;;42.87;22.87;;;;;;;-4.97;100.00;103778.66;2071985;28;20185;-62
2023/02/10 03:22:48;;;;;;;48.50;24.97;;;;;;;-4.83;100.00;103808.88;2072013;28;20240;-62
2023/02/10 03:23:49;;;;;;;45.90;23.93;;;;;;;-4.84;100.00;103804.50;2072614;28;20554;-62
2023/02/10 03:24:49;;;;;;;43.30;22.83;;;;;;;-5.24;100.00;103756.16;2071638;28;20188;-61
2023/02/10 03:25:50;;;;;;;38.57;22.40;;;;;;;-4.84;100.00;103808.06;2072293;28;20676;-62
2023/02/10 03:26:50;;;;;;;39.40;23.10;;;;;;;-4.86;100.00;103804.78;2067044;28;20233;-61
2023/02/10 03:27:50;;;;;;;40.03;23.17;;;;;;;-4.87;100.00;103807.75;2067875;28;20292;-61
2023/02/10 03:28:51;;;;;;;42.20;25.27;;;;;;;-4.86;100.00;103801.25;2072284;28;20196;-62
2023/02/10 03:29:52;;;;;;;40.83;24.87;;;;;;;-5.59;100.00;103687.31;2072340;28;20248;-62
2023/02/10 03:30:53;;;;;;;38.53;24.17;;;;;;;-4.96;100.00;103796.56;2071359;28;20887;-62
2023/02/10 03:31:53;;;;;;;42.13;23.70;;;;;;;-4.88;100.00;103800.69;2064396;28;20205;-62
2023/02/10 03:32:55;;;;;;;39.90;23.53;;;;;;;-5.09;100.00;103769.88;2072295;28;20658;-61
2023/02/10 03:33:55;;;;;;;37.92;22.95;;;;;;;-4.88;100.00;103806.13;2071828;28;20189;-61
2023/02/10 03:34:55;;;;;;;40.70;23.53;;;;;;;-4.89;100.00;103807.16;2072285;28;20228;-61
2023/02/10 03:35:57;;;;;;;36.30;22.73;;;;;;;-5.17;100.00;103775.72;2072228;28;20677;-61
2023/02/10 03:36:58;;;;;;;42.05;24.15;;;;;;;-4.90;100.00;103802.81;2071566;28;20193;-62
2023/02/10 03:37:58;;;;;;;41.13;24.10;;;;;;;-4.91;100.00;103803.91;2071152;28;21031;-62
2023/02/10 03:39:03;;;;;;;37.80;23.17;;;;;;;-6.45;100.00;103571.13;2071855;28;20182;-61
2023/02/10 03:40:03;;;;;;;45.47;24.35;;;;;;;-4.94;100.00;103797.09;2071940;28;20181;-61
2023/02/10 03:41:04;;;;;;;45.60;24.50;;;;;;;-4.96;100.00;103803.84;2072669;28;20185;-62
2023/02/10 03:42:05;;;;;;;42.63;24.47;;;;;;;-4.93;100.00;103801.44;2072292;28;20193;-62
2023/02/10 03:43:05;;;;;;;39.50;23.80;;;;;;;-5.06;100.00;103765.84;2071681;28;20632;-62
2023/02/10 03:44:06;;;;;;;40.77;24.03;;;;;;;-4.93;100.00;103793.31;2071922;28;20275;-61
2023/02/10 03:45:07;;;;;;;44.07;24.60;;;;;;;-4.96;100.00;103793.00;2071935;28;20197;-62
2023/02/10 03:46:10;;;;;;;45.53;25.37;;;;;;;-4.97;100.00;103792.19;2072301;28;20195;-62
2023/02/10 03:47:10;;;;;;;49.50;26.65;;;;;;;-5.21;100.00;103762.94;2071978;28;20597;-62
2023/02/10 03:48:11;;;;;;;44.20;24.60;;;;;;;-5.00;100.00;103797.28;2071777;28;20212;-61
2023/02/10 03:49:12;;;;;;;45.47;25.20;;;;;;;-5.11;100.00;103769.31;2071869;28;20261;-62
2023/02/10 03:50:12;;;;;;;44.80;24.70;;;;;;;-6.07;100.00;103609.72;2072686;28;20231;-61
2023/02/10 03:51:13;;;;;;;46.67;24.97;;;;;;;-4.93;100.00;103795.22;2071921;28;20262;-61
2023/02/10 03:52:13;;;;;;;46.90;26.13;;;;;;;-4.96;100.00;103790.31;2071961;28;20373;-62
2023/02/10 03:53:14;;;;;;;42.43;25.60;;;;;;;-4.97;100.00;103788.69;2071897;28;20204;-61
2023/02/10 03:54:14;;;;;;;44.37;25.17;;;;;;;-4.97;100.00;103789.47;2071524;28;20205;-62
2023/02/10 03:55:17;;;;;;;40.13;25.10;;;;;;;-4.95;100.00;103784.66;2071849;28;20221;-62
2023/02/10 03:56:17;;;;;;;45.00;25.42;;;;;;;-4.94;100.00;103788.16;2072370;28;20177;-62
2023/02/10 03:57:18;;;;;;;49.13;26.87;;;;;;;-4.99;100.00;103780.81;2070867;28;20255;-62
2023/02/10 03:58:19;;;;;;;44.10;25.70;;;;;;;-5.01;100.00;103785.66;2064220;28;20171;-61
2023/02/10 03:59:19;;;;;;;43.50;25.53;;;;;;;-4.98;100.00;103778.94;2064330;28;20211;-61
2023/02/10 04:00:20;;;;;;;43.47;25.70;;;;;;;-5.00;100.00;103787.31;2070451;28;20280;-61
2023/02/10 04:01:20;;;;;;;40.50;25.00;;;;;;;-5.01;100.00;103782.13;2072051;28;20247;-62
2023/02/10 04:02:21;;;;;;;40.03;24.97;;;;;;;-4.98;100.00;103787.06;2071727;28;20287;-61
2023/02/10 04:03:21;;;;;;;41.37;25.60;;;;;;;-5.03;100.00;103782.38;2072172;28;20193;-61
2023/02/10 04:04:22;;;;;;;45.53;27.07;;;;;;;-5.01;100.00;103782.13;2071145;28;20181;-62
2023/02/10 04:05:22;;;;;;;41.77;25.83;;;;;;;-5.04;100.00;103778.03;2070730;28;20189;-62
2023/02/10 04:06:23;;;;;;;47.13;26.60;;;;;;;-5.05;100.00;103784.53;2063817;28;20908;-62
2023/02/10 04:07:23;;;;;;;40.43;26.33;;;;;;;-5.01;100.00;103785.66;2072304;28;20235;-62
2023/02/10 04:08:23;;;;;;;49.30;28.30;;;;;;;-4.99;100.00;103785.41;2071650;28;20204;-62
2023/02/10 04:09:24;;;;;;;47.50;28.67;;;;;;;-6.03;100.00;103626.25;2072168;28;20201;-62
2023/02/10 04:10:24;;;;;;;48.33;29.07;;;;;;;-5.28;100.00;103733.38;2071963;28;20577;-62
2023/02/10 04:11:25;;;;;;;48.33;28.90;;;;;;;-5.54;100.00;103690.09;2072036;28;20224;-62
2023/02/10 04:12:25;;;;;;;52.83;29.17;;;;;;;-4.94;100.00;103777.34;2071910;28;20715;-61
2023/02/10 04:13:26;;;;;;;59.03;32.40;;;;;;;-4.96;100.00;103769.50;2071668;28;20184;-62
2023/02/10 04:14:26;;;;;;;61.67;31.57;;;;;;;-4.93;100.00;103782.50;2071326;28;20192;-62
2023/02/10 04:15:27;;;;;;;56.07;30.63;;;;;;;-5.39;100.00;103699.19;2071556;28;20656;-61
2023/02/10 04:16:29;;;;;;;55.33;30.40;;;;;;;-4.90;100.00;103776.59;2071470;28;20201;-62
2023/02/10 04:17:30;;;;;;;52.15;30.23;;;;;;;-4.89;100.00;103782.81;2070757;28;20189;-61
2023/02/10 04:18:30;;;;;;;54.63;30.30;;;;;;;-5.51;100.00;103673.38;2073722;28;20284;-62
2023/02/10 04:19:31;;;;;;;56.47;31.53;;;;;;;-4.84;100.00;103788.28;2073309;28;20200;-61
2023/02/10 04:20:31;;;;;;;53.50;32.63;;;;;;;-4.83;100.00;103779.13;2073914;28;20188;-61
2023/02/10 04:21:31;;;;;;;55.63;31.63;;;;;;;-4.81;100.00;103783.22;2073416;28;20185;-61
2023/02/10 04:22:32;;;;;;;53.37;31.37;;;;;;;-4.79;100.00;103782.94;2073571;28;20635;-62
2023/02/10 04:23:33;;;;;;;54.37;31.03;;;;;;;-5.27;100.00;103710.72;2074013;28;20220;-62
2023/02/10 04:24:33;;;;;;;52.03;29.73;;;;;;;-4.71;100.00;103777.09;2073143;28;20200;-62
2023/02/10 04:25:34;;;;;;;57.67;32.77;;;;;;;-4.67;100.00;103779.00;2073506;28;20193;-62
2023/02/10 04:26:34;;;;;;;55.70;31.13;;;;;;;-4.73;100.00;103768.41;2073652;28;20658;-61
2023/02/10 04:27:35;;;;;;;60.10;31.30;;;;;;;-5.51;100.00;103639.06;2068324;28;20221;-62
2023/02/10 04:28:35;;;;;;;54.50;30.37;;;;;;;-4.64;100.00;103786.63;2068818;28;20201;-62
2023/02/10 04:29:39;;;;;;;49.50;29.17;;;;;;;-4.60;100.00;103782.34;2073507;28;20262;-62
2023/02/10 04:30:40;;;;;;;47.95;28.52;;;;;;;-4.59;100.00;103783.97;2073819;28;20208;-61
2023/02/10 04:31:40;;;;;;;48.27;28.53;;;;;;;-4.58;100.00;103787.50;2072988;28;20217;-62
2023/02/10 04:32:40;;;;;;;59.47;28.77;;;;;;;-4.56;100.00;103791.56;2074097;28;20182;-62
2023/02/10 04:33:41;;;;;;;45.03;26.77;;;;;;;-5.51;100.00;103625.53;2066301;28;20189;-61
2023/02/10 04:34:41;;;;;;;46.70;24.33;;;;;;;-4.48;100.00;103791.13;2071121;28;20194;-62
2023/02/10 04:35:44;;;;;;;45.83;25.70;;;;;;;-4.44;100.00;103786.84;2073200;28;20682;-62
2023/02/10 04:36:44;;;;;;;44.65;25.20;;;;;;;-4.49;100.00;103796.78;2069543;28;20189;-62
2023/02/10 04:37:44;;;;;;;39.10;23.40;;;;;;;-4.49;100.00;103797.63;2067732;28;20190;-62
2023/02/10 04:38:45;;;;;;;46.17;23.53;;;;;;;-4.46;100.00;103799.81;2073358;28;20177;-62
2023/02/10 04:39:45;;;;;;;38.40;23.17;;;;;;;-5.22;100.00;103693.72;2073485;28;20184;-61
2023/02/10 04:40:46;;;;;;;40.67;24.47;;;;;;;-4.70;100.00;103786.81;2073278;28;20186;-62
2023/02/10 04:41:46;;;;;;;35.50;23.23;;;;;;;-4.69;100.00;103804.69;2064597;28;20679;-62
2023/02/10 04:42:47;;;;;;;37.47;23.37;;;;;;;-4.68;100.00;103809.03;2072906;28;20594;-62
2023/02/10 04:43:47;;;;;;;45.63;23.47;;;;;;;-4.63;100.00;103806.38;2070581;28;20236;-62
2023/02/10 04:44:48;;;;;;;40.70;23.53;;;;;;;-4.62;100.00;103802.63;2072379;28;20200;-62
2023/02/10 04:45:48;;;;;;;38.57;22.07;;;;;;;-4.58;100.00;103809.97;2072597;28;20189;-62